createdAt,value
2023-03-11T00:03:31.594Z,89.99
2023-03-11T00:08:35.719Z,88.41
2023-03-11T00:13:39.314Z,88.34
2023-03-11T00:18:42.136Z,89.82
2023-03-11T00:23:46.409Z,89.61
2023-03-11T00:28:49.564Z,88.30
2023-03-11T00:33:52.499Z,87.93
2023-03-11T00:38:56.655Z,88.03
2023-03-11T00:43:59.431Z,87.76
2023-03-11T00:49:02.286Z,88.09
2023-03-11T00:54:06.707Z,87.28
2023-03-11T00:59:09.739Z,87.64
2023-03-11T01:04:12.640Z,87.47
2023-03-11T01:09:16.851Z,89.14
2023-03-11T01:14:19.765Z,86.98
2023-03-11T01:19:22.538Z,86.65
2023-03-11T01:24:26.658Z,86.83
2023-03-11T01:29:29.449Z,87.14
2023-03-11T01:34:33.504Z,87.31
2023-03-11T01:39:37.574Z,85.40
2023-03-11T01:44:40.331Z,85.44
2023-03-11T01:49:43.588Z,87.06
2023-03-11T01:54:49.599Z,87.27
2023-03-11T01:59:59.347Z,86.19
2023-03-11T02:05:03.991Z,88.22
2023-03-11T02:10:10.588Z,85.60
2023-03-11T02:15:14.347Z,86.14
2023-03-11T02:20:28.509Z,86.13
2023-03-11T02:25:40.304Z,86.62
2023-03-11T02:30:45.751Z,84.54
2023-03-11T02:35:48.587Z,84.39
2023-03-11T02:40:55.600Z,87.57
2023-03-11T02:46:02.364Z,86.81
2023-03-11T02:51:06.092Z,86.06
2023-03-11T02:56:10.193Z,85.06
2023-03-11T03:01:14.462Z,85.05
2023-03-11T03:06:20.420Z,83.01
2023-03-11T03:11:25.501Z,85.09
2023-03-11T03:16:29.977Z,85.13
2023-03-11T03:21:32.975Z,86.18
2023-03-11T03:26:36.692Z,85.39
2023-03-11T03:31:41.574Z,84.89
2023-03-11T03:36:44.778Z,83.15
2023-03-11T03:41:47.733Z,83.13
2023-03-11T03:46:52.694Z,82.40
2023-03-11T03:51:55.836Z,81.75
2023-03-11T03:57:05.274Z,84.71
2023-03-11T04:02:13.464Z,83.14
2023-03-11T04:07:16.747Z,81.79
2023-03-11T04:12:19.740Z,82.34
2023-03-11T04:17:24.330Z,82.72
2023-03-11T04:22:29.320Z,82.88
2023-03-11T04:27:32.502Z,81.74
2023-03-11T04:32:37.501Z,82.78
2023-03-11T04:37:40.779Z,81.90
2023-03-11T04:42:43.746Z,82.06
2023-03-11T04:47:49.886Z,81.09
2023-03-11T04:52:53.282Z,83.57
2023-03-11T04:57:56.345Z,85.92
2023-03-11T05:03:02.007Z,85.16
2023-03-11T05:08:06.108Z,85.68
2023-03-11T05:13:10.341Z,85.39
2023-03-11T05:18:17.058Z,86.85
2023-03-11T05:23:20.597Z,86.44
2023-03-11T05:28:23.626Z,85.70
2023-03-11T05:33:35.215Z,86.57
2023-03-11T05:38:39.408Z,85.73
2023-03-11T05:43:42.263Z,86.00
2023-03-11T05:48:46.670Z,85.23
2023-03-11T05:53:50.277Z,84.54
2023-03-11T05:59:01.155Z,84.84
2023-03-11T06:04:08.841Z,84.51
2023-03-11T06:09:13.851Z,83.80
2023-03-11T06:14:18.106Z,80.92
2023-03-11T06:19:25.958Z,82.69
2023-03-11T06:24:28.920Z,82.22
2023-03-11T06:29:32.086Z,84.90
2023-03-11T06:34:37.542Z,77.46
2023-03-11T06:39:40.734Z,72.99
2023-03-11T06:44:44.952Z,67.04
2023-03-11T06:49:51.225Z,63.59
2023-03-11T06:54:54.573Z,64.04
2023-03-11T06:59:57.660Z,61.32
2023-03-11T07:05:03.212Z,54.84
2023-03-11T07:10:07.649Z,53.27
2023-03-11T07:15:12.517Z,53.24
2023-03-11T07:20:18.943Z,50.93
2023-03-11T07:25:21.968Z,47.52
2023-03-11T07:30:24.799Z,48.35
2023-03-11T07:35:28.998Z,48.45
2023-03-11T07:40:32.182Z,49.62
2023-03-11T07:45:35.049Z,48.73
2023-03-11T07:50:39.180Z,55.81
2023-03-11T07:55:42.153Z,60.97
2023-03-11T08:00:44.894Z,64.87
2023-03-11T08:05:49.344Z,64.30
2023-03-11T08:10:52.119Z,66.77
2023-03-11T08:15:54.871Z,63.81
2023-03-11T08:20:59.298Z,62.30
2023-03-11T08:26:04.761Z,61.95
2023-03-11T08:31:14.267Z,59.73
2023-03-11T08:36:19.691Z,58.86
2023-03-11T08:41:22.411Z,56.32
2023-03-11T08:46:27.571Z,57.24
2023-03-11T08:51:33.776Z,56.23
2023-03-11T08:56:36.511Z,55.95
2023-03-11T09:01:39.263Z,57.15
2023-03-11T09:06:45.304Z,59.62
2023-03-11T09:11:48.265Z,58.42
2023-03-11T09:16:51.037Z,58.28
2023-03-11T09:21:55.203Z,58.05
2023-03-11T09:26:57.977Z,55.04
2023-03-11T09:32:00.929Z,55.93
2023-03-11T09:37:05.036Z,56.07
2023-03-11T09:42:20.080Z,54.23
2023-03-11T09:47:42.600Z,56.25
2023-03-11T09:52:56.458Z,53.96
2023-03-11T09:58:03.007Z,57.94
2023-03-11T10:03:14.057Z,59.95
2023-03-11T10:08:26.405Z,62.08
2023-03-11T10:13:36.288Z,60.72
2023-03-11T10:19:03.211Z,61.79
2023-03-11T10:24:18.983Z,61.96
2023-03-11T10:29:27.487Z,60.44
2023-03-11T10:34:38.243Z,58.35
2023-03-11T10:39:42.477Z,62.28
2023-03-11T10:44:45.397Z,57.83
2023-03-11T10:49:48.197Z,56.07
2023-03-11T10:55:02.846Z,58.75
2023-03-11T11:00:12.335Z,58.28
2023-03-11T11:05:30.010Z,57.86
2023-03-11T11:10:36.886Z,57.64
2023-03-11T11:15:42.316Z,58.38
2023-03-11T11:20:56.187Z,56.50
2023-03-11T11:26:04.574Z,56.30
2023-03-11T11:31:19.884Z,56.34
2023-03-11T11:36:26.897Z,57.79
2023-03-11T11:41:34.813Z,57.74
2023-03-11T11:46:40.841Z,56.84
2023-03-11T11:51:48.204Z,55.01
2023-03-11T11:56:52.367Z,53.57
2023-03-11T12:02:05.074Z,52.19
2023-03-11T12:07:19.629Z,53.44
2023-03-11T12:12:31.320Z,51.57
2023-03-11T12:17:38.278Z,51.81
2023-03-11T12:23:05.650Z,51.33
2023-03-11T12:28:19.895Z,50.41
2023-03-11T12:33:32.115Z,53.80
2023-03-11T12:38:36.748Z,54.99
2023-03-11T12:44:29.755Z,55.43
2023-03-11T12:49:34.246Z,54.53
2023-03-11T12:54:39.492Z,50.40
2023-03-11T13:00:12.368Z,49.13
2023-03-11T13:05:23.827Z,50.26
2023-03-11T13:10:40.062Z,49.37
2023-03-11T13:15:44.255Z,50.21
2023-03-11T13:20:59.176Z,50.70
2023-03-11T13:26:30.487Z,50.95
2023-03-11T13:31:46.296Z,50.26
2023-03-11T13:37:05.696Z,51.88
2023-03-11T13:42:18.492Z,51.47
2023-03-11T13:47:24.449Z,51.94
2023-03-11T13:52:32.438Z,51.69
2023-03-11T13:57:36.973Z,51.28
2023-03-11T14:02:46.540Z,51.80
2023-03-11T14:07:49.286Z,49.88
2023-03-11T14:12:52.424Z,49.65
2023-03-11T14:18:26.059Z,49.11
2023-03-11T14:23:32.395Z,47.25
2023-03-11T14:28:38.875Z,48.04
2023-03-11T14:33:42.995Z,49.42
2023-03-11T14:38:47.675Z,49.78
2023-03-11T14:43:54.570Z,49.12
2023-03-11T14:49:01.720Z,47.82
2023-03-11T14:54:09.326Z,48.01
2023-03-11T14:59:16.726Z,47.66
2023-03-11T15:04:31.433Z,48.90
2023-03-11T15:09:34.580Z,50.52
2023-03-11T15:14:49.394Z,49.95
2023-03-11T15:19:53.781Z,50.58
2023-03-11T15:24:58.881Z,49.33
2023-03-11T15:30:03.770Z,50.13
2023-03-11T15:35:17.753Z,48.84
2023-03-11T15:40:30.065Z,49.39
2023-03-11T15:45:38.182Z,51.21
2023-03-11T15:50:53.619Z,52.11
2023-03-11T15:56:06.884Z,52.58
2023-03-11T16:01:10.842Z,56.31
2023-03-11T16:06:14.961Z,62.17
2023-03-11T16:11:18.778Z,63.65
2023-03-11T16:16:22.341Z,63.28
2023-03-11T16:21:34.144Z,70.38
2023-03-11T16:26:37.080Z,70.67
2023-03-11T16:31:39.864Z,73.13
2023-03-11T16:36:43.959Z,75.50
2023-03-11T16:41:46.730Z,76.99
2023-03-11T16:46:49.574Z,73.36
2023-03-11T16:51:53.750Z,76.40
2023-03-11T16:56:56.635Z,74.48
2023-03-11T17:01:59.567Z,78.96
2023-03-11T17:07:03.796Z,80.83
2023-03-11T17:12:07.600Z,78.18
2023-03-11T17:17:10.436Z,80.85
2023-03-11T17:22:15.357Z,81.58
2023-03-11T17:27:18.110Z,78.57
2023-03-11T17:32:21.508Z,80.63
2023-03-11T17:37:26.025Z,82.23
2023-03-11T17:42:28.888Z,85.78
2023-03-11T17:47:33.182Z,82.75
2023-03-11T17:52:37.289Z,83.00
2023-03-11T17:57:45.525Z,82.11
2023-03-11T18:02:51.214Z,81.18
2023-03-11T18:07:55.415Z,82.20
2023-03-11T18:12:58.176Z,81.40
2023-03-11T18:18:01.216Z,81.48
2023-03-11T18:23:05.911Z,82.86
2023-03-11T18:28:08.656Z,81.85
2023-03-11T18:33:11.609Z,82.29
2023-03-11T18:38:15.972Z,83.73
2023-03-11T18:43:18.762Z,80.32
2023-03-11T18:48:21.509Z,79.47
2023-03-11T18:53:25.827Z,79.03
2023-03-11T18:58:28.942Z,81.43
2023-03-11T19:03:31.726Z,80.01
2023-03-11T19:08:35.882Z,79.65
2023-03-11T19:13:46.956Z,80.56
2023-03-11T19:18:51.344Z,78.13
2023-03-11T19:23:56.493Z,79.78
2023-03-11T19:28:59.294Z,80.95
2023-03-11T19:34:02.075Z,82.24
2023-03-11T19:39:06.500Z,80.94
2023-03-11T19:44:09.255Z,80.60
2023-03-11T19:49:12.116Z,79.46
2023-03-11T19:54:17.119Z,78.14
2023-03-11T19:59:19.873Z,80.13
2023-03-11T20:04:22.676Z,77.33
2023-03-11T20:09:27.023Z,76.74
2023-03-11T20:14:32.175Z,72.54
2023-03-11T20:19:34.999Z,72.14
2023-03-11T20:24:39.620Z,72.26
2023-03-11T20:29:42.452Z,70.46
2023-03-11T20:34:45.308Z,70.22
2023-03-11T20:39:49.625Z,68.86
2023-03-11T20:44:52.753Z,69.38
2023-03-11T20:49:56.912Z,67.52
2023-03-11T20:55:01.233Z,69.82
2023-03-11T21:00:08.151Z,68.69
2023-03-11T21:05:12.570Z,66.02
2023-03-11T21:10:17.433Z,68.95
2023-03-11T21:15:20.502Z,69.75
2023-03-11T21:20:23.380Z,67.27
2023-03-11T21:25:28.498Z,70.84
2023-03-11T21:30:31.252Z,72.41
2023-03-11T21:35:34.337Z,73.38
2023-03-11T21:40:38.639Z,74.04
2023-03-11T21:45:42.827Z,74.80
2023-03-11T21:50:45.723Z,76.78
2023-03-11T21:55:51.878Z,73.38
2023-03-11T22:00:54.786Z,76.29
2023-03-11T22:05:58.477Z,73.47
2023-03-11T22:11:03.043Z,72.49
2023-03-11T22:16:07.867Z,73.02
2023-03-11T22:21:11.097Z,72.03
2023-03-11T22:26:16.005Z,69.86
2023-03-11T22:31:19.252Z,70.98
2023-03-11T22:36:22.104Z,69.90
2023-03-11T22:41:26.199Z,70.79
2023-03-11T22:46:30.701Z,70.30
2023-03-11T22:51:34.641Z,71.44
2023-03-11T22:56:38.978Z,73.47
2023-03-11T23:01:41.699Z,72.36
2023-03-11T23:06:44.482Z,74.06
2023-03-11T23:11:48.650Z,73.61
2023-03-11T23:16:51.449Z,73.88
2023-03-11T23:21:54.169Z,74.50
2023-03-11T23:26:58.857Z,75.36
2023-03-11T23:32:01.619Z,81.56
2023-03-11T23:37:05.555Z,82.60
2023-03-11T23:42:24.545Z,78.43
2023-03-11T23:47:28.643Z,78.62
2023-03-11T23:52:31.421Z,82.22
2023-03-11T23:57:36.988Z,81.93
